<?xml version="1.0" encoding="UTF-8" standalone="no" ?>
<gpx xmlns="http://www.topografix.com/GPX/1/1" xmlns:xsi="http://www.w3.org/2001/XMLSchema-instance" xsi:schemaLocation="http://www.topografix.com/GPX/1/1 http://www.topografix.com/GPX/1/1/gpx.xsd" version="1.1" creator="VisuGPX - https://www.visugpx.com">
  <metadata>
    <name>Venise-Pamir J96 - Kirghiztan</name>
    <desc><![CDATA[Vers le KM 50 la route se transforme en piste défoncée, très cassante]]></desc>
  </metadata>
  <trk>
    <name><![CDATA[Venise-Pamir J96 - Kirghiztan_1]]></name>
    <trkseg>
      <trkpt lat="40.9273" lon="73.00359">
        <ele>486.7</ele>
        <time>2018-09-05T02:31:43.000Z</time>
      </trkpt>
      <trkpt lat="40.92864" lon="73.00334">
        <ele>704.2</ele>
        <time>2018-09-05T02:36:36.000Z</time>
      </trkpt>
      <trkpt lat="40.9299" lon="73.00414">
        <ele>720.3</ele>
        <time>2018-09-05T02:37:37.000Z</time>
      </trkpt>
      <trkpt lat="40.93035" lon="73.00681">
        <ele>748.7</ele>
        <time>2018-09-05T02:38:38.000Z</time>
      </trkpt>
      <trkpt lat="40.93188" lon="73.00841">
        <ele>745.7</ele>
        <time>2018-09-05T02:39:39.000Z</time>
      </trkpt>
      <trkpt lat="40.9341" lon="73.00896">
        <ele>708.4</ele>
        <time>2018-09-05T02:40:40.000Z</time>
      </trkpt>
      <trkpt lat="40.93678" lon="73.00936">
        <ele>766.7</ele>
        <time>2018-09-05T02:41:41.000Z</time>
      </trkpt>
      <trkpt lat="40.93936" lon="73.00977">
        <ele>784.4</ele>
        <time>2018-09-05T02:42:42.000Z</time>
      </trkpt>
      <trkpt lat="40.94072" lon="73.01008">
        <ele>780.4</ele>
        <time>2018-09-05T02:49:06.000Z</time>
      </trkpt>
      <trkpt lat="40.9427" lon="73.01049">
        <ele>784.4</ele>
        <time>2018-09-05T02:50:07.000Z</time>
      </trkpt>
      <trkpt lat="40.94482" lon="73.01089">
        <ele>786.6</ele>
        <time>2018-09-05T02:51:08.000Z</time>
      </trkpt>
      <trkpt lat="40.94681" lon="73.00994">
        <ele>789.8</ele>
        <time>2018-09-05T02:52:09.000Z</time>
      </trkpt>
      <trkpt lat="40.94838" lon="73.00758">
        <ele>789.8</ele>
        <time>2018-09-05T02:53:10.000Z</time>
      </trkpt>
      <trkpt lat="40.94983" lon="73.00503">
        <ele>788.1</ele>
        <time>2018-09-05T02:54:11.000Z</time>
      </trkpt>
      <trkpt lat="40.95143" lon="73.00279">
        <ele>793.3</ele>
        <time>2018-09-05T02:55:12.000Z</time>
      </trkpt>
      <trkpt lat="40.95334" lon="73.00004">
        <ele>790.7</ele>
        <time>2018-09-05T02:56:13.000Z</time>
      </trkpt>
      <trkpt lat="40.95508" lon="72.99696">
        <ele>792.5</ele>
        <time>2018-09-05T02:57:14.000Z</time>
      </trkpt>
      <trkpt lat="40.95675" lon="72.9938">
        <ele>790</ele>
        <time>2018-09-05T02:58:15.000Z</time>
      </trkpt>
      <trkpt lat="40.95838" lon="72.9907">
        <ele>791.9</ele>
        <time>2018-09-05T02:59:16.000Z</time>
      </trkpt>
      <trkpt lat="40.96055" lon="72.99019">
        <ele>803.3</ele>
        <time>2018-09-05T03:00:17.000Z</time>
      </trkpt>
      <trkpt lat="40.96258" lon="72.99057">
        <ele>804.2</ele>
        <time>2018-09-05T03:01:18.000Z</time>
      </trkpt>
      <trkpt lat="40.96458" lon="72.99174">
        <ele>808.7</ele>
        <time>2018-09-05T03:02:19.000Z</time>
      </trkpt>
      <trkpt lat="40.96652" lon="72.99325">
        <ele>803.6</ele>
        <time>2018-09-05T03:03:20.000Z</time>
      </trkpt>
      <trkpt lat="40.96838" lon="72.99471">
        <ele>805.1</ele>
        <time>2018-09-05T03:04:21.000Z</time>
      </trkpt>
      <trkpt lat="40.97033" lon="72.9962">
        <ele>809.6</ele>
        <time>2018-09-05T03:05:22.000Z</time>
      </trkpt>
      <trkpt lat="40.97149" lon="72.99714">
        <ele>811.1</ele>
        <time>2018-09-05T03:11:26.000Z</time>
      </trkpt>
      <trkpt lat="40.97337" lon="72.99861">
        <ele>812.5</ele>
        <time>2018-09-05T03:12:27.000Z</time>
      </trkpt>
      <trkpt lat="40.9753" lon="73.0001">
        <ele>815.2</ele>
        <time>2018-09-05T03:13:28.000Z</time>
      </trkpt>
      <trkpt lat="40.97739" lon="73.00172">
        <ele>820.5</ele>
        <time>2018-09-05T03:14:29.000Z</time>
      </trkpt>
      <trkpt lat="40.97939" lon="73.00329">
        <ele>824.2</ele>
        <time>2018-09-05T03:15:29.000Z</time>
      </trkpt>
      <trkpt lat="40.98128" lon="73.00472">
        <ele>838.2</ele>
        <time>2018-09-05T03:16:30.000Z</time>
      </trkpt>
      <trkpt lat="40.98314" lon="73.00567">
        <ele>830.8</ele>
        <time>2018-09-05T03:17:31.000Z</time>
      </trkpt>
      <trkpt lat="40.9853" lon="73.00653">
        <ele>834</ele>
        <time>2018-09-05T03:18:31.000Z</time>
      </trkpt>
      <trkpt lat="40.98737" lon="73.00729">
        <ele>850.7</ele>
        <time>2018-09-05T03:19:32.000Z</time>
      </trkpt>
      <trkpt lat="40.98961" lon="73.00817">
        <ele>847.3</ele>
        <time>2018-09-05T03:20:33.000Z</time>
      </trkpt>
      <trkpt lat="40.99187" lon="73.00904">
        <ele>847.3</ele>
        <time>2018-09-05T03:21:34.000Z</time>
      </trkpt>
      <trkpt lat="40.99411" lon="73.00987">
        <ele>853.2</ele>
        <time>2018-09-05T03:22:35.000Z</time>
      </trkpt>
      <trkpt lat="40.99633" lon="73.01109">
        <ele>859.3</ele>
        <time>2018-09-05T03:23:36.000Z</time>
      </trkpt>
      <trkpt lat="40.99759" lon="73.01392">
        <ele>864.5</ele>
        <time>2018-09-05T03:24:37.000Z</time>
      </trkpt>
      <trkpt lat="40.99886" lon="73.01685">
        <ele>869.1</ele>
        <time>2018-09-05T03:25:38.000Z</time>
      </trkpt>
      <trkpt lat="41.00022" lon="73.01974">
        <ele>867.8</ele>
        <time>2018-09-05T03:26:39.000Z</time>
      </trkpt>
      <trkpt lat="41.00155" lon="73.02232">
        <ele>872.2</ele>
        <time>2018-09-05T03:27:40.000Z</time>
      </trkpt>
      <trkpt lat="41.00272" lon="73.025">
        <ele>876.9</ele>
        <time>2018-09-05T03:28:41.000Z</time>
      </trkpt>
      <trkpt lat="41.00383" lon="73.02759">
        <ele>879.3</ele>
        <time>2018-09-05T03:29:42.000Z</time>
      </trkpt>
      <trkpt lat="41.00488" lon="73.03027">
        <ele>876.7</ele>
        <time>2018-09-05T03:30:43.000Z</time>
      </trkpt>
      <trkpt lat="41.0059" lon="73.03281">
        <ele>874.4</ele>
        <time>2018-09-05T03:31:44.000Z</time>
      </trkpt>
      <trkpt lat="41.00686" lon="73.03541">
        <ele>876.9</ele>
        <time>2018-09-05T03:32:45.000Z</time>
      </trkpt>
      <trkpt lat="41.0076" lon="73.03829">
        <ele>883.9</ele>
        <time>2018-09-05T03:33:46.000Z</time>
      </trkpt>
      <trkpt lat="41.00866" lon="73.04123">
        <ele>888.5</ele>
        <time>2018-09-05T03:34:47.000Z</time>
      </trkpt>
      <trkpt lat="41.00971" lon="73.04418">
        <ele>890</ele>
        <time>2018-09-05T03:35:48.000Z</time>
      </trkpt>
      <trkpt lat="41.01078" lon="73.0471">
        <ele>895.3</ele>
        <time>2018-09-05T03:36:49.000Z</time>
      </trkpt>
      <trkpt lat="41.01178" lon="73.04983">
        <ele>896.6</ele>
        <time>2018-09-05T03:37:50.000Z</time>
      </trkpt>
      <trkpt lat="41.01278" lon="73.05252">
        <ele>904.5</ele>
        <time>2018-09-05T03:38:51.000Z</time>
      </trkpt>
      <trkpt lat="41.01381" lon="73.0552">
        <ele>908.3</ele>
        <time>2018-09-05T03:39:52.000Z</time>
      </trkpt>
      <trkpt lat="41.01491" lon="73.05811">
        <ele>907</ele>
        <time>2018-09-05T03:40:53.000Z</time>
      </trkpt>
      <trkpt lat="41.01601" lon="73.061">
        <ele>909.6</ele>
        <time>2018-09-05T03:41:54.000Z</time>
      </trkpt>
      <trkpt lat="41.017" lon="73.06372">
        <ele>912.2</ele>
        <time>2018-09-05T03:42:55.000Z</time>
      </trkpt>
      <trkpt lat="41.01777" lon="73.06633">
        <ele>911.2</ele>
        <time>2018-09-05T03:43:56.000Z</time>
      </trkpt>
      <trkpt lat="41.01842" lon="73.0687">
        <ele>921.4</ele>
        <time>2018-09-05T03:44:57.000Z</time>
      </trkpt>
      <trkpt lat="41.01914" lon="73.07128">
        <ele>927.9</ele>
        <time>2018-09-05T03:45:58.000Z</time>
      </trkpt>
      <trkpt lat="41.01979" lon="73.07415">
        <ele>929.7</ele>
        <time>2018-09-05T03:46:59.000Z</time>
      </trkpt>
      <trkpt lat="41.02053" lon="73.07714">
        <ele>934.5</ele>
        <time>2018-09-05T03:48:00.000Z</time>
      </trkpt>
      <trkpt lat="41.02214" lon="73.07944">
        <ele>941.1</ele>
        <time>2018-09-05T03:49:01.000Z</time>
      </trkpt>
      <trkpt lat="41.0236" lon="73.08158">
        <ele>947.8</ele>
        <time>2018-09-05T03:50:02.000Z</time>
      </trkpt>
      <trkpt lat="41.02503" lon="73.08354">
        <ele>949.5</ele>
        <time>2018-09-05T03:51:03.000Z</time>
      </trkpt>
      <trkpt lat="41.02649" lon="73.08539">
        <ele>954.5</ele>
        <time>2018-09-05T03:52:04.000Z</time>
      </trkpt>
      <trkpt lat="41.02809" lon="73.08712">
        <ele>958</ele>
        <time>2018-09-05T03:53:05.000Z</time>
      </trkpt>
      <trkpt lat="41.0296" lon="73.08877">
        <ele>963.5</ele>
        <time>2018-09-05T03:54:06.000Z</time>
      </trkpt>
      <trkpt lat="41.03098" lon="73.0906">
        <ele>968.9</ele>
        <time>2018-09-05T03:55:07.000Z</time>
      </trkpt>
      <trkpt lat="41.0325" lon="73.09257">
        <ele>969.5</ele>
        <time>2018-09-05T03:56:08.000Z</time>
      </trkpt>
      <trkpt lat="41.03403" lon="73.09459">
        <ele>969.5</ele>
        <time>2018-09-05T03:57:09.000Z</time>
      </trkpt>
      <trkpt lat="41.0355" lon="73.09649">
        <ele>974.4</ele>
        <time>2018-09-05T03:58:09.000Z</time>
      </trkpt>
      <trkpt lat="41.03649" lon="73.09771">
        <ele>975.8</ele>
        <time>2018-09-05T04:03:12.000Z</time>
      </trkpt>
      <trkpt lat="41.03772" lon="73.09937">
        <ele>977.9</ele>
        <time>2018-09-05T04:04:13.000Z</time>
      </trkpt>
      <trkpt lat="41.03911" lon="73.10123">
        <ele>982.9</ele>
        <time>2018-09-05T04:05:14.000Z</time>
      </trkpt>
      <trkpt lat="41.04048" lon="73.10302">
        <ele>992.6</ele>
        <time>2018-09-05T04:06:14.000Z</time>
      </trkpt>
      <trkpt lat="41.04181" lon="73.10493">
        <ele>1006.8</ele>
        <time>2018-09-05T04:07:15.000Z</time>
      </trkpt>
      <trkpt lat="41.04313" lon="73.10659">
        <ele>1005.1</ele>
        <time>2018-09-05T04:08:15.000Z</time>
      </trkpt>
      <trkpt lat="41.04222" lon="73.10791">
        <ele>1007.3</ele>
        <time>2018-09-05T04:11:10.000Z</time>
      </trkpt>
      <trkpt lat="41.04087" lon="73.10772">
        <ele>994.2</ele>
        <time>2018-09-05T04:13:42.000Z</time>
      </trkpt>
      <trkpt lat="41.03956" lon="73.10595">
        <ele>991</ele>
        <time>2018-09-05T04:14:43.000Z</time>
      </trkpt>
      <trkpt lat="41.03847" lon="73.10702">
        <ele>996.8</ele>
        <time>2018-09-05T04:15:48.000Z</time>
      </trkpt>
      <trkpt lat="41.03969" lon="73.10874">
        <ele>1000.7</ele>
        <time>2018-09-05T04:16:49.000Z</time>
      </trkpt>
      <trkpt lat="41.04108" lon="73.11041">
        <ele>999.1</ele>
        <time>2018-09-05T04:17:50.000Z</time>
      </trkpt>
      <trkpt lat="41.04002" lon="73.1125">
        <ele>1001.7</ele>
        <time>2018-09-05T04:18:50.000Z</time>
      </trkpt>
      <trkpt lat="41.03899" lon="73.11442">
        <ele>1006.2</ele>
        <time>2018-09-05T04:19:51.000Z</time>
      </trkpt>
      <trkpt lat="41.03819" lon="73.11599">
        <ele>1006.6</ele>
        <time>2018-09-05T04:20:52.000Z</time>
      </trkpt>
      <trkpt lat="41.03733" lon="73.11769">
        <ele>1004.6</ele>
        <time>2018-09-05T04:21:53.000Z</time>
      </trkpt>
      <trkpt lat="41.0365" lon="73.11932">
        <ele>1008.5</ele>
        <time>2018-09-05T04:22:54.000Z</time>
      </trkpt>
      <trkpt lat="41.03557" lon="73.12116">
        <ele>1019.9</ele>
        <time>2018-09-05T04:23:55.000Z</time>
      </trkpt>
      <trkpt lat="41.0357" lon="73.12296">
        <ele>1025.5</ele>
        <time>2018-09-05T04:26:18.000Z</time>
      </trkpt>
      <trkpt lat="41.03826" lon="73.12568">
        <ele>1020.8</ele>
        <time>2018-09-05T04:27:19.000Z</time>
      </trkpt>
      <trkpt lat="41.04084" lon="73.12814">
        <ele>1016.2</ele>
        <time>2018-09-05T04:28:20.000Z</time>
      </trkpt>
      <trkpt lat="41.0426" lon="73.13012">
        <ele>1033.4</ele>
        <time>2018-09-05T04:29:21.000Z</time>
      </trkpt>
      <trkpt lat="41.04442" lon="73.13188">
        <ele>1037.3</ele>
        <time>2018-09-05T04:30:22.000Z</time>
      </trkpt>
      <trkpt lat="41.04617" lon="73.13364">
        <ele>1038.2</ele>
        <time>2018-09-05T04:31:22.000Z</time>
      </trkpt>
      <trkpt lat="41.0472" lon="73.13521">
        <ele>1039.3</ele>
        <time>2018-09-05T04:32:23.000Z</time>
      </trkpt>
      <trkpt lat="41.0481" lon="73.13657">
        <ele>1041.9</ele>
        <time>2018-09-05T04:34:13.000Z</time>
      </trkpt>
      <trkpt lat="41.04961" lon="73.13876">
        <ele>1039.8</ele>
        <time>2018-09-05T04:35:14.000Z</time>
      </trkpt>
      <trkpt lat="41.05107" lon="73.14099">
        <ele>1049.9</ele>
        <time>2018-09-05T04:36:15.000Z</time>
      </trkpt>
      <trkpt lat="41.05272" lon="73.14348">
        <ele>1049.7</ele>
        <time>2018-09-05T04:37:16.000Z</time>
      </trkpt>
      <trkpt lat="41.05456" lon="73.14618">
        <ele>1048.4</ele>
        <time>2018-09-05T04:38:17.000Z</time>
      </trkpt>
      <trkpt lat="41.0561" lon="73.14847">
        <ele>1062.4</ele>
        <time>2018-09-05T04:39:18.000Z</time>
      </trkpt>
      <trkpt lat="41.05705" lon="73.14976">
        <ele>1059.4</ele>
        <time>2018-09-05T04:42:16.000Z</time>
      </trkpt>
      <trkpt lat="41.05888" lon="73.15247">
        <ele>1062.6</ele>
        <time>2018-09-05T04:43:17.000Z</time>
      </trkpt>
      <trkpt lat="41.06063" lon="73.15495">
        <ele>1063.4</ele>
        <time>2018-09-05T04:44:18.000Z</time>
      </trkpt>
      <trkpt lat="41.06237" lon="73.15739">
        <ele>1065.1</ele>
        <time>2018-09-05T04:45:19.000Z</time>
      </trkpt>
      <trkpt lat="41.06419" lon="73.15996">
        <ele>1067.2</ele>
        <time>2018-09-05T04:46:20.000Z</time>
      </trkpt>
      <trkpt lat="41.06576" lon="73.16235">
        <ele>1076.6</ele>
        <time>2018-09-05T04:47:21.000Z</time>
      </trkpt>
      <trkpt lat="41.06755" lon="73.16442">
        <ele>1077.7</ele>
        <time>2018-09-05T04:48:22.000Z</time>
      </trkpt>
      <trkpt lat="41.06937" lon="73.16646">
        <ele>1088</ele>
        <time>2018-09-05T04:49:23.000Z</time>
      </trkpt>
      <trkpt lat="41.07117" lon="73.16834">
        <ele>1090.5</ele>
        <time>2018-09-05T04:50:24.000Z</time>
      </trkpt>
      <trkpt lat="41.07303" lon="73.17025">
        <ele>1094.3</ele>
        <time>2018-09-05T04:51:25.000Z</time>
      </trkpt>
      <trkpt lat="41.07485" lon="73.17221">
        <ele>1103</ele>
        <time>2018-09-05T04:52:26.000Z</time>
      </trkpt>
      <trkpt lat="41.07665" lon="73.17411">
        <ele>1105.5</ele>
        <time>2018-09-05T04:53:27.000Z</time>
      </trkpt>
      <trkpt lat="41.07841" lon="73.17604">
        <ele>1110.2</ele>
        <time>2018-09-05T04:54:28.000Z</time>
      </trkpt>
      <trkpt lat="41.08022" lon="73.17805">
        <ele>1119.8</ele>
        <time>2018-09-05T04:55:29.000Z</time>
      </trkpt>
      <trkpt lat="41.08203" lon="73.1799">
        <ele>1121.4</ele>
        <time>2018-09-05T04:56:30.000Z</time>
      </trkpt>
      <trkpt lat="41.08356" lon="73.18203">
        <ele>1126.9</ele>
        <time>2018-09-05T04:57:31.000Z</time>
      </trkpt>
      <trkpt lat="41.08509" lon="73.18407">
        <ele>1125.9</ele>
        <time>2018-09-05T04:58:32.000Z</time>
      </trkpt>
      <trkpt lat="41.08647" lon="73.18617">
        <ele>1130.5</ele>
        <time>2018-09-05T04:59:33.000Z</time>
      </trkpt>
      <trkpt lat="41.08729" lon="73.18761">
        <ele>1151.4</ele>
        <time>2018-09-05T05:28:53.000Z</time>
      </trkpt>
      <trkpt lat="41.08848" lon="73.18954">
        <ele>1151.4</ele>
        <time>2018-09-05T05:29:54.000Z</time>
      </trkpt>
      <trkpt lat="41.08987" lon="73.19195">
        <ele>1157.3</ele>
        <time>2018-09-05T05:30:55.000Z</time>
      </trkpt>
      <trkpt lat="41.09118" lon="73.19462">
        <ele>1168.7</ele>
        <time>2018-09-05T05:31:56.000Z</time>
      </trkpt>
      <trkpt lat="41.0924" lon="73.19742">
        <ele>1188</ele>
        <time>2018-09-05T05:32:57.000Z</time>
      </trkpt>
      <trkpt lat="41.09361" lon="73.20032">
        <ele>1207.8</ele>
        <time>2018-09-05T05:33:58.000Z</time>
      </trkpt>
      <trkpt lat="41.0948" lon="73.20329">
        <ele>1226.8</ele>
        <time>2018-09-05T05:34:59.000Z</time>
      </trkpt>
      <trkpt lat="41.09611" lon="73.20622">
        <ele>1236.2</ele>
        <time>2018-09-05T05:36:00.000Z</time>
      </trkpt>
      <trkpt lat="41.09725" lon="73.20936">
        <ele>1240.5</ele>
        <time>2018-09-05T05:37:01.000Z</time>
      </trkpt>
      <trkpt lat="41.09817" lon="73.21254">
        <ele>1244.5</ele>
        <time>2018-09-05T05:38:01.000Z</time>
      </trkpt>
      <trkpt lat="41.09916" lon="73.2156">
        <ele>1256.2</ele>
        <time>2018-09-05T05:39:02.000Z</time>
      </trkpt>
      <trkpt lat="41.10003" lon="73.21862">
        <ele>1264.4</ele>
        <time>2018-09-05T05:40:03.000Z</time>
      </trkpt>
      <trkpt lat="41.10099" lon="73.22149">
        <ele>1273.7</ele>
        <time>2018-09-05T05:41:04.000Z</time>
      </trkpt>
      <trkpt lat="41.10182" lon="73.22459">
        <ele>1277.7</ele>
        <time>2018-09-05T05:42:05.000Z</time>
      </trkpt>
      <trkpt lat="41.10262" lon="73.22766">
        <ele>1283</ele>
        <time>2018-09-05T05:43:06.000Z</time>
      </trkpt>
      <trkpt lat="41.10345" lon="73.23065">
        <ele>1285.4</ele>
        <time>2018-09-05T05:44:07.000Z</time>
      </trkpt>
      <trkpt lat="41.10415" lon="73.23354">
        <ele>1282.9</ele>
        <time>2018-09-05T05:45:08.000Z</time>
      </trkpt>
      <trkpt lat="41.10498" lon="73.23609">
        <ele>1275.9</ele>
        <time>2018-09-05T05:46:09.000Z</time>
      </trkpt>
      <trkpt lat="41.1057" lon="73.23874">
        <ele>1266.2</ele>
        <time>2018-09-05T05:47:10.000Z</time>
      </trkpt>
      <trkpt lat="41.10623" lon="73.24046">
        <ele>1256.6</ele>
        <time>2018-09-05T05:48:11.000Z</time>
      </trkpt>
      <trkpt lat="41.10679" lon="73.2421">
        <ele>1244.9</ele>
        <time>2018-09-05T05:49:14.000Z</time>
      </trkpt>
      <trkpt lat="41.10746" lon="73.24411">
        <ele>1237</ele>
        <time>2018-09-05T05:50:15.000Z</time>
      </trkpt>
      <trkpt lat="41.10808" lon="73.24615">
        <ele>1234.1</ele>
        <time>2018-09-05T05:51:16.000Z</time>
      </trkpt>
      <trkpt lat="41.10884" lon="73.24887">
        <ele>1235.5</ele>
        <time>2018-09-05T05:52:16.000Z</time>
      </trkpt>
      <trkpt lat="41.10946" lon="73.2505">
        <ele>1242.1</ele>
        <time>2018-09-05T05:54:28.000Z</time>
      </trkpt>
      <trkpt lat="41.11079" lon="73.25436">
        <ele>1245.5</ele>
        <time>2018-09-05T05:55:29.000Z</time>
      </trkpt>
      <trkpt lat="41.11196" lon="73.2579">
        <ele>1249</ele>
        <time>2018-09-05T05:56:30.000Z</time>
      </trkpt>
      <trkpt lat="41.11306" lon="73.26114">
        <ele>1254.9</ele>
        <time>2018-09-05T05:57:31.000Z</time>
      </trkpt>
      <trkpt lat="41.11404" lon="73.26387">
        <ele>1258.3</ele>
        <time>2018-09-05T05:58:32.000Z</time>
      </trkpt>
      <trkpt lat="41.11501" lon="73.26643">
        <ele>1266.3</ele>
        <time>2018-09-05T05:59:33.000Z</time>
      </trkpt>
      <trkpt lat="41.11593" lon="73.26898">
        <ele>1277.1</ele>
        <time>2018-09-05T06:00:34.000Z</time>
      </trkpt>
      <trkpt lat="41.11686" lon="73.27162">
        <ele>1288.3</ele>
        <time>2018-09-05T06:01:35.000Z</time>
      </trkpt>
      <trkpt lat="41.11787" lon="73.27462">
        <ele>1298.9</ele>
        <time>2018-09-05T06:02:36.000Z</time>
      </trkpt>
      <trkpt lat="41.11889" lon="73.27766">
        <ele>1303.3</ele>
        <time>2018-09-05T06:03:37.000Z</time>
      </trkpt>
      <trkpt lat="41.11954" lon="73.27985">
        <ele>1304.1</ele>
        <time>2018-09-05T06:04:38.000Z</time>
      </trkpt>
      <trkpt lat="41.12023" lon="73.28181">
        <ele>1303.4</ele>
        <time>2018-09-05T06:05:39.000Z</time>
      </trkpt>
      <trkpt lat="41.12102" lon="73.28368">
        <ele>1303</ele>
        <time>2018-09-05T06:06:40.000Z</time>
      </trkpt>
      <trkpt lat="41.12216" lon="73.28646">
        <ele>1304.3</ele>
        <time>2018-09-05T06:07:41.000Z</time>
      </trkpt>
      <trkpt lat="41.12326" lon="73.28925">
        <ele>1308.1</ele>
        <time>2018-09-05T06:08:42.000Z</time>
      </trkpt>
      <trkpt lat="41.12422" lon="73.29238">
        <ele>1311</ele>
        <time>2018-09-05T06:09:43.000Z</time>
      </trkpt>
      <trkpt lat="41.125" lon="73.29519">
        <ele>1317.9</ele>
        <time>2018-09-05T06:10:44.000Z</time>
      </trkpt>
      <trkpt lat="41.12616" lon="73.29989">
        <ele>1326.8</ele>
        <time>2018-09-05T06:12:22.000Z</time>
      </trkpt>
      <trkpt lat="41.12711" lon="73.30264">
        <ele>1335.7</ele>
        <time>2018-09-05T06:13:23.000Z</time>
      </trkpt>
      <trkpt lat="41.12792" lon="73.30592">
        <ele>1342.5</ele>
        <time>2018-09-05T06:14:24.000Z</time>
      </trkpt>
      <trkpt lat="41.1289" lon="73.30885">
        <ele>1351.9</ele>
        <time>2018-09-05T06:15:25.000Z</time>
      </trkpt>
      <trkpt lat="41.13216" lon="73.30787">
        <ele>1355.2</ele>
        <time>2018-09-05T06:16:26.000Z</time>
      </trkpt>
      <trkpt lat="41.13479" lon="73.30703">
        <ele>1338.8</ele>
        <time>2018-09-05T06:17:27.000Z</time>
      </trkpt>
      <trkpt lat="41.13759" lon="73.30591">
        <ele>1327.6</ele>
        <time>2018-09-05T06:18:28.000Z</time>
      </trkpt>
      <trkpt lat="41.14064" lon="73.30509">
        <ele>1318.4</ele>
        <time>2018-09-05T06:19:29.000Z</time>
      </trkpt>
      <trkpt lat="41.14342" lon="73.30201">
        <ele>1309</ele>
        <time>2018-09-05T06:20:30.000Z</time>
      </trkpt>
      <trkpt lat="41.14818" lon="73.29556">
        <ele>1306.3</ele>
        <time>2018-09-05T06:21:30.000Z</time>
      </trkpt>
      <trkpt lat="41.15191" lon="73.29292">
        <ele>1304</ele>
        <time>2018-09-05T06:22:31.000Z</time>
      </trkpt>
      <trkpt lat="41.15331" lon="73.29274">
        <ele>1304.2</ele>
        <time>2018-09-05T06:24:19.000Z</time>
      </trkpt>
      <trkpt lat="41.15267" lon="73.29432">
        <ele>1304.2</ele>
        <time>2018-09-05T06:28:57.000Z</time>
      </trkpt>
      <trkpt lat="41.15169" lon="73.29556">
        <ele>1302.8</ele>
        <time>2018-09-05T06:31:11.000Z</time>
      </trkpt>
      <trkpt lat="41.15116" lon="73.29723">
        <ele>1303.5</ele>
        <time>2018-09-05T06:32:50.000Z</time>
      </trkpt>
      <trkpt lat="41.1509" lon="73.299">
        <ele>1305.7</ele>
        <time>2018-09-05T06:34:19.000Z</time>
      </trkpt>
      <trkpt lat="41.15082" lon="73.30085">
        <ele>1308.2</ele>
        <time>2018-09-05T06:35:35.000Z</time>
      </trkpt>
      <trkpt lat="41.15058" lon="73.30263">
        <ele>1309.8</ele>
        <time>2018-09-05T06:36:40.000Z</time>
      </trkpt>
      <trkpt lat="41.14992" lon="73.30422">
        <ele>1310.6</ele>
        <time>2018-09-05T06:37:50.000Z</time>
      </trkpt>
      <trkpt lat="41.14916" lon="73.30571">
        <ele>1307.6</ele>
        <time>2018-09-05T06:39:43.000Z</time>
      </trkpt>
      <trkpt lat="41.14868" lon="73.30759">
        <ele>1306</ele>
        <time>2018-09-05T06:41:26.000Z</time>
      </trkpt>
      <trkpt lat="41.14987" lon="73.30847">
        <ele>1305.4</ele>
        <time>2018-09-05T06:43:26.000Z</time>
      </trkpt>
      <trkpt lat="41.15113" lon="73.30914">
        <ele>1296.5</ele>
        <time>2018-09-05T06:44:43.000Z</time>
      </trkpt>
      <trkpt lat="41.16106" lon="73.35393">
        <ele>1474.2</ele>
        <time>2018-09-05T07:21:55.000Z</time>
      </trkpt>
      <trkpt lat="41.16126" lon="73.35571">
        <ele>1483.2</ele>
        <time>2018-09-05T07:24:55.000Z</time>
      </trkpt>
      <trkpt lat="41.16152" lon="73.35749">
        <ele>1489.7</ele>
        <time>2018-09-05T07:26:39.000Z</time>
      </trkpt>
      <trkpt lat="41.1619" lon="73.35922">
        <ele>1498.4</ele>
        <time>2018-09-05T07:28:10.000Z</time>
      </trkpt>
      <trkpt lat="41.16244" lon="73.36087">
        <ele>1506.7</ele>
        <time>2018-09-05T07:29:38.000Z</time>
      </trkpt>
      <trkpt lat="41.16314" lon="73.36242">
        <ele>1512.3</ele>
        <time>2018-09-05T07:31:05.000Z</time>
      </trkpt>
      <trkpt lat="41.16385" lon="73.36395">
        <ele>1519.4</ele>
        <time>2018-09-05T07:32:35.000Z</time>
      </trkpt>
      <trkpt lat="41.16459" lon="73.36547">
        <ele>1525</ele>
        <time>2018-09-05T07:34:05.000Z</time>
      </trkpt>
      <trkpt lat="41.16541" lon="73.3669">
        <ele>1535.2</ele>
        <time>2018-09-05T07:35:38.000Z</time>
      </trkpt>
      <trkpt lat="41.16622" lon="73.36834">
        <ele>1537.7</ele>
        <time>2018-09-05T07:37:00.000Z</time>
      </trkpt>
      <trkpt lat="41.16707" lon="73.36974">
        <ele>1546.4</ele>
        <time>2018-09-05T07:39:44.000Z</time>
      </trkpt>
      <trkpt lat="41.16799" lon="73.37107">
        <ele>1554.9</ele>
        <time>2018-09-05T07:41:35.000Z</time>
      </trkpt>
      <trkpt lat="41.16909" lon="73.37212">
        <ele>1559.9</ele>
        <time>2018-09-05T07:43:01.000Z</time>
      </trkpt>
      <trkpt lat="41.17022" lon="73.37312">
        <ele>1563.4</ele>
        <time>2018-09-05T07:44:21.000Z</time>
      </trkpt>
      <trkpt lat="41.17134" lon="73.37411">
        <ele>1564.9</ele>
        <time>2018-09-05T07:45:41.000Z</time>
      </trkpt>
      <trkpt lat="41.17246" lon="73.37513">
        <ele>1569.5</ele>
        <time>2018-09-05T08:57:09.000Z</time>
      </trkpt>
      <trkpt lat="41.17349" lon="73.37629">
        <ele>1571.7</ele>
        <time>2018-09-05T08:58:12.000Z</time>
      </trkpt>
      <trkpt lat="41.1745" lon="73.37749">
        <ele>1580.6</ele>
        <time>2018-09-05T08:59:39.000Z</time>
      </trkpt>
      <trkpt lat="41.17563" lon="73.37849">
        <ele>1583.4</ele>
        <time>2018-09-05T09:00:48.000Z</time>
      </trkpt>
      <trkpt lat="41.17678" lon="73.37944">
        <ele>1585.5</ele>
        <time>2018-09-05T09:02:00.000Z</time>
      </trkpt>
      <trkpt lat="41.17805" lon="73.38008">
        <ele>1597.9</ele>
        <time>2018-09-05T09:06:36.000Z</time>
      </trkpt>
      <trkpt lat="41.17924" lon="73.38093">
        <ele>1606.9</ele>
        <time>2018-09-05T09:08:04.000Z</time>
      </trkpt>
      <trkpt lat="41.18055" lon="73.38141">
        <ele>1610</ele>
        <time>2018-09-05T09:09:19.000Z</time>
      </trkpt>
      <trkpt lat="41.18191" lon="73.38143">
        <ele>1620</ele>
        <time>2018-09-05T09:10:45.000Z</time>
      </trkpt>
      <trkpt lat="41.1816" lon="73.38333">
        <ele>1624</ele>
        <time>2018-09-05T09:11:46.000Z</time>
      </trkpt>
      <trkpt lat="41.18275" lon="73.38429">
        <ele>1624.4</ele>
        <time>2018-09-05T09:13:19.000Z</time>
      </trkpt>
      <trkpt lat="41.18405" lon="73.38374">
        <ele>1632.7</ele>
        <time>2018-09-05T09:14:27.000Z</time>
      </trkpt>
      <trkpt lat="41.18516" lon="73.38269">
        <ele>1638.7</ele>
        <time>2018-09-05T09:15:28.000Z</time>
      </trkpt>
      <trkpt lat="41.18553" lon="73.38443">
        <ele>1642.9</ele>
        <time>2018-09-05T09:16:33.000Z</time>
      </trkpt>
      <trkpt lat="41.18613" lon="73.38643">
        <ele>1636.1</ele>
        <time>2018-09-05T09:17:34.000Z</time>
      </trkpt>
      <trkpt lat="41.18825" lon="73.38508">
        <ele>1623.1</ele>
        <time>2018-09-05T09:18:35.000Z</time>
      </trkpt>
      <trkpt lat="41.18774" lon="73.38827">
        <ele>1616.7</ele>
        <time>2018-09-05T09:19:36.000Z</time>
      </trkpt>
      <trkpt lat="41.18823" lon="73.38997">
        <ele>1609.8</ele>
        <time>2018-09-05T09:21:01.000Z</time>
      </trkpt>
      <trkpt lat="41.19093" lon="73.39022">
        <ele>1594.6</ele>
        <time>2018-09-05T09:22:02.000Z</time>
      </trkpt>
      <trkpt lat="41.19227" lon="73.38998">
        <ele>1597.7</ele>
        <time>2018-09-05T09:23:04.000Z</time>
      </trkpt>
      <trkpt lat="41.19224" lon="73.39178">
        <ele>1614.3</ele>
        <time>2018-09-05T09:36:48.000Z</time>
      </trkpt>
      <trkpt lat="41.19352" lon="73.39289">
        <ele>1612.4</ele>
        <time>2018-09-05T09:37:49.000Z</time>
      </trkpt>
      <trkpt lat="41.19472" lon="73.39204">
        <ele>1614.5</ele>
        <time>2018-09-05T09:38:58.000Z</time>
      </trkpt>
      <trkpt lat="41.19609" lon="73.39184">
        <ele>1616.2</ele>
        <time>2018-09-05T09:40:04.000Z</time>
      </trkpt>
      <trkpt lat="41.19766" lon="73.39366">
        <ele>1609.4</ele>
        <time>2018-09-05T09:41:05.000Z</time>
      </trkpt>
      <trkpt lat="41.19809" lon="73.39536">
        <ele>1601.1</ele>
        <time>2018-09-05T09:44:49.000Z</time>
      </trkpt>
      <trkpt lat="41.19891" lon="73.39679">
        <ele>1589.5</ele>
        <time>2018-09-05T09:46:00.000Z</time>
      </trkpt>
      <trkpt lat="41.20162" lon="73.39843">
        <ele>1562.9</ele>
        <time>2018-09-05T09:47:01.000Z</time>
      </trkpt>
      <trkpt lat="41.20303" lon="73.39843">
        <ele>1573.8</ele>
        <time>2018-09-05T09:48:01.000Z</time>
      </trkpt>
      <trkpt lat="41.2044" lon="73.3983">
        <ele>1585</ele>
        <time>2018-09-05T09:49:35.000Z</time>
      </trkpt>
      <trkpt lat="41.20575" lon="73.39829">
        <ele>1584.8</ele>
        <time>2018-09-05T09:50:36.000Z</time>
      </trkpt>
      <trkpt lat="41.2074" lon="73.39814">
        <ele>1586.1</ele>
        <time>2018-09-05T09:51:37.000Z</time>
      </trkpt>
      <trkpt lat="41.20642" lon="73.39938">
        <ele>1609.7</ele>
        <time>2018-09-05T09:53:44.000Z</time>
      </trkpt>
      <trkpt lat="41.20526" lon="73.40031">
        <ele>1632.7</ele>
        <time>2018-09-05T09:55:23.000Z</time>
      </trkpt>
      <trkpt lat="41.20441" lon="73.402">
        <ele>1631.5</ele>
        <time>2018-09-05T09:56:24.000Z</time>
      </trkpt>
      <trkpt lat="41.20311" lon="73.40542">
        <ele>1607.7</ele>
        <time>2018-09-05T09:57:25.000Z</time>
      </trkpt>
      <trkpt lat="41.20223" lon="73.41021">
        <ele>1577.6</ele>
        <time>2018-09-05T09:58:26.000Z</time>
      </trkpt>
      <trkpt lat="41.20343" lon="73.41458">
        <ele>1567.1</ele>
        <time>2018-09-05T09:59:27.000Z</time>
      </trkpt>
      <trkpt lat="41.20461" lon="73.41758">
        <ele>1545.4</ele>
        <time>2018-09-05T10:00:28.000Z</time>
      </trkpt>
      <trkpt lat="41.20528" lon="73.41916">
        <ele>1550</ele>
        <time>2018-09-05T10:02:04.000Z</time>
      </trkpt>
      <trkpt lat="41.20601" lon="73.42068">
        <ele>1557.8</ele>
        <time>2018-09-05T10:03:24.000Z</time>
      </trkpt>
      <trkpt lat="41.20669" lon="73.42261">
        <ele>1560.4</ele>
        <time>2018-09-05T10:04:25.000Z</time>
      </trkpt>
      <trkpt lat="41.20751" lon="73.42576">
        <ele>1556.6</ele>
        <time>2018-09-05T10:05:26.000Z</time>
      </trkpt>
      <trkpt lat="41.20785" lon="73.42751">
        <ele>1547</ele>
        <time>2018-09-05T10:06:33.000Z</time>
      </trkpt>
      <trkpt lat="41.20828" lon="73.42922">
        <ele>1546.2</ele>
        <time>2018-09-05T10:07:57.000Z</time>
      </trkpt>
      <trkpt lat="41.20839" lon="73.43102">
        <ele>1555.2</ele>
        <time>2018-09-05T10:09:41.000Z</time>
      </trkpt>
      <trkpt lat="41.2087" lon="73.43297">
        <ele>1562.5</ele>
        <time>2018-09-05T10:10:42.000Z</time>
      </trkpt>
      <trkpt lat="41.20914" lon="73.4353">
        <ele>1574.1</ele>
        <time>2018-09-05T10:11:43.000Z</time>
      </trkpt>
      <trkpt lat="41.20898" lon="73.43709">
        <ele>1582.2</ele>
        <time>2018-09-05T10:12:50.000Z</time>
      </trkpt>
      <trkpt lat="41.20907" lon="73.43891">
        <ele>1593.9</ele>
        <time>2018-09-05T10:13:54.000Z</time>
      </trkpt>
      <trkpt lat="41.20885" lon="73.44125">
        <ele>1601.5</ele>
        <time>2018-09-05T10:14:55.000Z</time>
      </trkpt>
      <trkpt lat="41.20974" lon="73.44317">
        <ele>1597.5</ele>
        <time>2018-09-05T10:15:56.000Z</time>
      </trkpt>
      <trkpt lat="41.2092" lon="73.44482">
        <ele>1583.2</ele>
        <time>2018-09-05T10:18:12.000Z</time>
      </trkpt>
      <trkpt lat="41.2094" lon="73.44661">
        <ele>1591.9</ele>
        <time>2018-09-05T10:19:22.000Z</time>
      </trkpt>
      <trkpt lat="41.20952" lon="73.4484">
        <ele>1604.6</ele>
        <time>2018-09-05T10:20:32.000Z</time>
      </trkpt>
      <trkpt lat="41.20995" lon="73.45011">
        <ele>1621.8</ele>
        <time>2018-09-05T10:21:47.000Z</time>
      </trkpt>
      <trkpt lat="41.21041" lon="73.45181">
        <ele>1632.1</ele>
        <time>2018-09-05T10:22:54.000Z</time>
      </trkpt>
      <trkpt lat="41.21077" lon="73.45355">
        <ele>1626.8</ele>
        <time>2018-09-05T10:24:02.000Z</time>
      </trkpt>
      <trkpt lat="41.21173" lon="73.45615">
        <ele>1619.5</ele>
        <time>2018-09-05T10:25:03.000Z</time>
      </trkpt>
      <trkpt lat="41.2123" lon="73.45779">
        <ele>1621.8</ele>
        <time>2018-09-05T10:26:24.000Z</time>
      </trkpt>
      <trkpt lat="41.21271" lon="73.45957">
        <ele>1624.4</ele>
        <time>2018-09-05T10:29:42.000Z</time>
      </trkpt>
      <trkpt lat="41.21316" lon="73.46257">
        <ele>1621</ele>
        <time>2018-09-05T10:30:43.000Z</time>
      </trkpt>
      <trkpt lat="41.21313" lon="73.46589">
        <ele>1613.5</ele>
        <time>2018-09-05T10:31:44.000Z</time>
      </trkpt>
      <trkpt lat="41.21403" lon="73.46809">
        <ele>1597.5</ele>
        <time>2018-09-05T10:32:45.000Z</time>
      </trkpt>
      <trkpt lat="41.2152" lon="73.46899">
        <ele>1584.9</ele>
        <time>2018-09-05T10:34:32.000Z</time>
      </trkpt>
      <trkpt lat="41.21666" lon="73.47005">
        <ele>1583.1</ele>
        <time>2018-09-05T10:35:32.000Z</time>
      </trkpt>
      <trkpt lat="41.21747" lon="73.47215">
        <ele>1583.1</ele>
        <time>2018-09-05T10:36:32.000Z</time>
      </trkpt>
      <trkpt lat="41.2182" lon="73.47367">
        <ele>1584.5</ele>
        <time>2018-09-05T10:37:56.000Z</time>
      </trkpt>
      <trkpt lat="41.21927" lon="73.4763">
        <ele>1587.7</ele>
        <time>2018-09-05T10:38:57.000Z</time>
      </trkpt>
      <trkpt lat="41.21979" lon="73.47897">
        <ele>1589.2</ele>
        <time>2018-09-05T10:39:58.000Z</time>
      </trkpt>
      <trkpt lat="41.22098" lon="73.47982">
        <ele>1573.9</ele>
        <time>2018-09-05T10:53:10.000Z</time>
      </trkpt>
      <trkpt lat="41.22198" lon="73.48104">
        <ele>1571.3</ele>
        <time>2018-09-05T10:54:51.000Z</time>
      </trkpt>
      <trkpt lat="41.22283" lon="73.48245">
        <ele>1568.6</ele>
        <time>2018-09-05T10:56:33.000Z</time>
      </trkpt>
      <trkpt lat="41.22399" lon="73.48336">
        <ele>1568.2</ele>
        <time>2018-09-05T10:58:16.000Z</time>
      </trkpt>
      <trkpt lat="41.22516" lon="73.48428">
        <ele>1571.8</ele>
        <time>2018-09-05T11:00:13.000Z</time>
      </trkpt>
      <trkpt lat="41.22617" lon="73.48546">
        <ele>1576.5</ele>
        <time>2018-09-05T11:02:11.000Z</time>
      </trkpt>
      <trkpt lat="41.22692" lon="73.48701">
        <ele>1587.2</ele>
        <time>2018-09-05T11:03:30.000Z</time>
      </trkpt>
      <trkpt lat="41.22726" lon="73.48876">
        <ele>1599.1</ele>
        <time>2018-09-05T11:04:31.000Z</time>
      </trkpt>
      <trkpt lat="41.22757" lon="73.49053">
        <ele>1628.9</ele>
        <time>2018-09-05T11:06:22.000Z</time>
      </trkpt>
      <trkpt lat="41.22791" lon="73.49229">
        <ele>1653.7</ele>
        <time>2018-09-05T11:07:43.000Z</time>
      </trkpt>
      <trkpt lat="41.22854" lon="73.4939">
        <ele>1670.4</ele>
        <time>2018-09-05T11:08:51.000Z</time>
      </trkpt>
      <trkpt lat="41.22938" lon="73.49581">
        <ele>1683</ele>
        <time>2018-09-05T11:09:52.000Z</time>
      </trkpt>
      <trkpt lat="41.23012" lon="73.49732">
        <ele>1695.7</ele>
        <time>2018-09-05T11:10:54.000Z</time>
      </trkpt>
      <trkpt lat="41.23067" lon="73.49909">
        <ele>1709.7</ele>
        <time>2018-09-05T11:11:55.000Z</time>
      </trkpt>
      <trkpt lat="41.23114" lon="73.50078">
        <ele>1719.5</ele>
        <time>2018-09-05T11:14:54.000Z</time>
      </trkpt>
      <trkpt lat="41.23067" lon="73.49907">
        <ele>1724.7</ele>
        <time>2018-09-05T11:42:59.000Z</time>
      </trkpt>
    </trkseg>
  </trk>
</gpx>